Time;durP1;ratioP1;P1;durP2;ratioP2;P2;SDS_P1;SDS_P2;PMS_P1;PMS_P2;Temp;Humidity;BMP_temperature;BMP_pressure;BME280_temperature;BME280_humidity;BME280_pressure;Samples;Min_cycle;Max_cycle;Signal;HPM_P1;HPM_P2
2023/01/23 00:01:41;;;;;;;7.10;3.57;;;;;;;5.67;69.18;103255.78;4951420;28;99493;-79
2023/01/23 00:04:07;;;;;;;4.70;3.80;;;;;;;5.71;68.82;103253.81;4954527;28;96783;-79
2023/01/23 00:06:32;;;;;;;2.97;2.73;;;;;;;5.72;69.05;103260.06;4961076;28;96857;-79
2023/01/23 00:08:58;;;;;;;6.13;4.17;;;;;;;5.73;68.98;103251.47;4946343;28;97413;-79
2023/01/23 00:11:26;;;;;;;3.67;3.30;;;;;;;5.78;68.76;103255.75;4952948;28;97609;-79
2023/01/23 00:13:52;;;;;;;7.40;3.77;;;;;;;5.70;68.66;103252.22;4945238;28;97040;-79
2023/01/23 00:16:22;;;;;;;6.80;3.30;;;;;;;5.77;68.76;103263.16;4944932;28;96956;-79
2023/01/23 00:18:48;;;;;;;6.03;3.80;;;;;;;5.73;68.52;103261.59;4945009;28;96907;-80
2023/01/23 00:21:16;;;;;;;7.03;3.97;;;;;;;5.70;68.89;103268.63;4945445;28;99083;-79
2023/01/23 00:23:44;;;;;;;3.57;3.27;;;;;;;5.67;69.07;103269.44;4942985;28;97211;-79
2023/01/23 00:26:14;;;;;;;5.27;3.83;;;;;;;5.68;68.80;103260.03;4950096;28;97146;-79
2023/01/23 00:28:40;;;;;;;4.63;3.10;;;;;;;5.72;69.19;103258.06;4950035;28;97796;-79
2023/01/23 00:31:11;;;;;;;7.70;3.60;;;;;;;5.73;69.04;103256.91;4946370;28;97710;-79
2023/01/23 00:33:41;;;;;;;4.93;3.20;;;;;;;5.71;68.83;103247.56;4953746;28;96881;-78
2023/01/23 00:36:07;;;;;;;5.00;2.90;;;;;;;5.74;68.81;103257.69;4942833;28;96842;-79
2023/01/23 00:38:32;;;;;;;5.10;3.70;;;;;;;5.75;69.00;103256.50;4957629;28;99548;-79
2023/01/23 00:40:57;;;;;;;4.40;3.40;;;;;;;5.74;68.72;103268.63;4950182;28;96991;-80
2023/01/23 00:43:24;;;;;;;3.23;2.83;;;;;;;5.73;68.45;103250.66;4944970;28;97075;-79
2023/01/23 00:45:49;;;;;;;4.30;3.27;;;;;;;5.70;68.68;103268.63;4942155;28;97191;-79
2023/01/23 00:48:15;;;;;;;4.27;3.00;;;;;;;5.67;68.61;103253.03;4948839;28;97861;-80
2023/01/23 00:50:40;;;;;;;6.67;3.53;;;;;;;5.63;68.99;103268.66;4951362;28;98932;-79
2023/01/23 00:53:08;;;;;;;7.80;4.03;;;;;;;5.63;69.04;103263.19;4939729;28;96998;-80
2023/01/23 00:55:34;;;;;;;6.40;3.33;;;;;;;5.60;68.89;103285.03;4946325;28;96794;-80
2023/01/23 00:58:00;;;;;;;4.67;3.23;;;;;;;5.57;68.56;103264.75;4949748;28;97571;-79
2023/01/23 01:00:25;;;;;;;6.00;3.33;;;;;;;5.56;69.02;103287.00;4944057;28;97092;-80
2023/01/23 01:02:51;;;;;;;4.97;3.43;;;;;;;5.52;68.95;103273.38;4954837;28;97302;-80
2023/01/23 01:05:17;;;;;;;3.27;2.90;;;;;;;5.53;69.16;103274.91;4951703;28;97064;-80
2023/01/23 01:07:43;;;;;;;4.73;3.13;;;;;;;5.53;69.00;103285.03;4950452;28;97696;-79
2023/01/23 01:10:10;;;;;;;3.73;3.17;;;;;;;5.52;68.96;103295.22;4954158;28;97360;-79
2023/01/23 01:12:36;;;;;;;6.37;3.93;;;;;;;5.48;69.14;103291.72;4946186;28;97041;-80
2023/01/23 01:15:02;;;;;;;3.80;2.70;;;;;;;5.52;69.20;103283.50;4943122;28;97219;-79
2023/01/23 01:17:28;;;;;;;6.27;3.03;;;;;;;5.52;69.09;103291.69;4945065;28;98559;-78
2023/01/23 01:19:53;;;;;;;5.87;3.37;;;;;;;5.51;69.55;103314.69;4946146;28;98906;-79
2023/01/23 01:22:19;;;;;;;5.80;3.03;;;;;;;5.51;69.07;103304.56;4944477;28;97053;-79
2023/01/23 01:24:45;;;;;;;8.13;3.43;;;;;;;5.50;69.25;103318.63;4952079;28;97064;-79
2023/01/23 01:27:10;;;;;;;5.53;3.20;;;;;;;5.48;69.18;103310.81;4945867;28;97105;-80
2023/01/23 01:29:36;;;;;;;4.47;3.17;;;;;;;5.52;68.91;103313.53;4940013;28;97570;-79
2023/01/23 01:32:01;;;;;;;4.60;3.23;;;;;;;5.50;69.29;103321.34;4939376;28;97188;-79
2023/01/23 01:34:26;;;;;;;3.20;2.90;;;;;;;5.46;69.25;103302.22;4970482;28;96921;-79
2023/01/23 01:36:52;;;;;;;5.00;3.83;;;;;;;5.51;69.52;103310.03;4944186;28;97128;-80
2023/01/23 01:39:18;;;;;;;5.10;3.43;;;;;;;5.51;69.34;103310.03;4945245;28;97641;-79
2023/01/23 01:41:43;;;;;;;7.40;2.87;;;;;;;5.49;69.27;103328.75;4951502;28;97208;-79
2023/01/23 01:44:20;;;;;;;4.57;3.60;;;;;;;5.51;69.28;103320.16;4945987;28;97112;-79
2023/01/23 01:46:46;;;;;;;5.70;3.13;;;;;;;5.52;69.44;103321.72;4943791;28;97848;-79
2023/01/23 01:49:25;;;;;;;4.60;3.53;;;;;;;5.52;69.45;103322.50;4948802;28;97188;-79
2023/01/23 01:51:56;;;;;;;4.33;3.30;;;;;;;5.49;69.53;103330.69;4941224;28;97544;-79
2023/01/23 01:54:45;;;;;;;5.93;3.70;;;;;;;5.51;69.47;103320.94;4949457;28;96865;-79
2023/01/23 01:57:19;;;;;;;5.70;3.43;;;;;;;5.44;69.25;103318.22;4948531;28;97897;-80
2023/01/23 01:59:58;;;;;;;8.47;3.07;;;;;;;5.53;69.57;103324.06;4946500;28;97228;-80
2023/01/23 02:02:33;;;;;;;3.67;2.83;;;;;;;5.52;69.64;103327.97;4948462;28;97125;-79
2023/01/23 02:05:10;;;;;;;4.07;2.93;;;;;;;5.53;69.56;103326.00;4947864;28;97031;-79
2023/01/23 02:07:47;;;;;;;6.83;2.87;;;;;;;5.53;69.19;103336.94;4941764;28;98017;-79
2023/01/23 02:10:15;;;;;;;3.17;2.63;;;;;;;5.53;69.47;103384.13;4944291;28;97550;-80
2023/01/23 02:12:44;;;;;;;5.10;3.13;;;;;;;5.54;69.16;103336.56;4945107;28;97832;-78
2023/01/23 02:15:10;;;;;;;3.87;2.90;;;;;;;5.54;69.71;103352.16;4939358;28;96881;-79
2023/01/23 02:17:37;;;;;;;3.03;2.83;;;;;;;5.49;69.55;103331.47;4947351;28;97389;-79
2023/01/23 02:20:14;;;;;;;2.80;2.53;;;;;;;5.50;69.37;103341.25;4947782;28;99524;-79
2023/01/23 02:22:57;;;;;;;5.60;3.70;;;;;;;5.46;69.75;103337.72;4944219;28;97284;-79
2023/01/23 02:25:35;;;;;;;3.97;3.20;;;;;;;5.42;69.63;103339.66;4961567;28;97067;-78
2023/01/23 02:28:01;;;;;;;4.13;3.10;;;;;;;5.39;69.83;103340.47;4945826;28;97902;-79
2023/01/23 02:30:26;;;;;;;5.90;3.67;;;;;;;5.43;69.66;103352.16;4956253;28;98764;-80
2023/01/23 02:32:52;;;;;;;6.60;3.80;;;;;;;5.42;69.83;103350.59;4950477;28;97179;-79
2023/01/23 02:35:29;;;;;;;3.73;3.40;;;;;;;5.39;69.48;103397.78;4945896;28;97067;-80
2023/01/23 02:37:59;;;;;;;3.80;3.10;;;;;;;5.42;69.50;103345.13;4950839;28;100420;-80
2023/01/23 02:40:36;;;;;;;5.40;3.20;;;;;;;5.36;69.92;103337.72;4954976;28;98334;-79
2023/01/23 02:43:04;;;;;;;5.40;3.53;;;;;;;5.35;70.12;103361.53;4950411;28;96729;-79
2023/01/23 02:45:30;;;;;;;5.03;4.10;;;;;;;5.34;70.00;103346.31;4947831;28;96701;-80
2023/01/23 02:47:55;;;;;;;5.90;3.73;;;;;;;5.31;70.08;103347.88;4941374;28;100267;-79
2023/01/23 02:50:21;;;;;;;5.40;3.30;;;;;;;5.32;69.97;103348.66;4942294;28;99382;-79
2023/01/23 02:52:48;;;;;;;5.77;3.80;;;;;;;5.35;70.21;103342.41;4948676;28;96725;-79
2023/01/23 02:55:13;;;;;;;4.97;3.60;;;;;;;5.41;70.20;103351.00;4945839;28;97124;-80
2023/01/23 02:57:39;;;;;;;6.43;3.57;;;;;;;5.42;70.06;103361.50;4947799;28;99218;-78
2023/01/23 03:00:19;;;;;;;8.03;3.30;;;;;;;5.46;69.96;103356.81;4943648;28;96756;-79
2023/01/23 03:02:54;;;;;;;3.67;2.97;;;;;;;5.46;69.98;103347.88;4947573;28;96964;-80
2023/01/23 03:05:19;;;;;;;3.90;3.33;;;;;;;5.46;69.81;103339.69;4954277;28;97337;-79
2023/01/23 03:07:45;;;;;;;4.63;3.17;;;;;;;5.48;69.61;103351.00;4955862;28;99136;-80
2023/01/23 03:10:10;;;;;;;4.13;3.40;;;;;;;5.51;69.91;103356.44;4944160;28;97338;-80
2023/01/23 03:12:42;;;;;;;3.57;2.87;;;;;;;5.51;69.90;103344.72;4941902;28;96758;-79
2023/01/23 03:15:08;;;;;;;4.80;3.03;;;;;;;5.60;69.76;103350.56;4943302;28;97054;-78
2023/01/23 03:17:35;;;;;;;6.63;3.10;;;;;;;5.59;69.92;103349.03;4950094;28;99251;-79
2023/01/23 03:20:00;;;;;;;4.37;3.30;;;;;;;5.61;69.55;103342.00;4954417;28;96565;-77
2023/01/23 03:22:26;;;;;;;4.20;3.30;;;;;;;5.58;69.26;103348.25;4945405;28;96830;-79
2023/01/23 03:24:51;;;;;;;7.73;3.70;;;;;;;5.59;69.38;103390.75;4955675;28;97085;-79
2023/01/23 03:27:16;;;;;;;4.43;3.30;;;;;;;5.61;69.35;103360.34;4947801;28;97535;-79
2023/01/23 03:32:28;;;;;;;5.57;3.73;;;;;;;5.62;69.37;103353.69;4946853;28;96617;-80
2023/01/23 03:34:53;;;;;;;8.30;3.87;;;;;;;5.66;69.31;103354.47;4943367;28;96848;-80
2023/01/23 03:37:19;;;;;;;3.87;3.07;;;;;;;5.66;69.15;103388.03;4936567;28;96757;-79
2023/01/23 03:42:33;;;;;;;8.90;3.73;;;;;;;5.66;69.18;103360.72;4947392;28;97063;-79
2023/01/23 03:44:58;;;;;;;6.80;3.80;;;;;;;5.66;69.35;103382.56;4942138;28;97217;-79
2023/01/23 03:47:25;;;;;;;5.63;3.50;;;;;;;5.67;69.23;103351.38;4944589;28;97774;-79
2023/01/23 03:49:50;;;;;;;4.47;3.73;;;;;;;5.69;68.99;103359.94;4949007;28;97126;-80
2023/01/23 03:52:16;;;;;;;5.20;3.47;;;;;;;5.71;69.21;103373.19;4941596;28;97096;-79
2023/01/23 03:54:41;;;;;;;11.43;3.53;;;;;;;5.72;69.09;103381.00;4944603;28;96949;-79
2023/01/23 03:57:07;;;;;;;7.10;3.10;;;;;;;5.78;69.11;103359.53;4946772;28;98929;-79
2023/01/23 03:59:32;;;;;;;4.53;3.00;;;;;;;5.76;69.34;103354.47;4939717;28;96907;-80
2023/01/23 04:01:59;;;;;;;6.00;3.60;;;;;;;5.76;69.02;103365.41;4938978;28;97171;-79
2023/01/23 04:04:24;;;;;;;6.73;3.43;;;;;;;5.75;69.30;103355.63;4947588;28;97460;-79
2023/01/23 04:06:50;;;;;;;4.50;3.33;;;;;;;5.78;69.02;103363.06;4948516;28;100924;-78
2023/01/23 04:09:15;;;;;;;4.23;3.03;;;;;;;5.77;69.23;103358.75;4948037;28;99288;-79
2023/01/23 04:11:41;;;;;;;8.30;3.70;;;;;;;5.75;68.80;103352.91;4945216;28;96748;-78
2023/01/23 04:14:06;;;;;;;4.90;3.43;;;;;;;5.71;68.71;103334.97;4946433;28;96781;-79
2023/01/23 04:16:31;;;;;;;5.30;3.40;;;;;;;5.67;68.96;103362.28;4948349;28;97028;-78
2023/01/23 04:18:57;;;;;;;4.60;3.40;;;;;;;5.68;69.03;103347.44;4948605;28;98918;-79
2023/01/23 04:21:23;;;;;;;7.30;4.00;;;;;;;5.65;68.63;103353.72;4937159;28;97248;-79
2023/01/23 04:23:48;;;;;;;9.17;4.00;;;;;;;5.62;69.32;103362.69;4939737;28;97473;-79
2023/01/23 04:26:13;;;;;;;7.03;3.70;;;;;;;5.59;68.84;103355.25;4947138;28;97759;-79
2023/01/23 04:28:39;;;;;;;6.00;4.33;;;;;;;5.60;68.94;103351.38;4941129;28;100317;-79
2023/01/23 04:31:04;;;;;;;8.37;4.20;;;;;;;5.61;69.03;103382.19;4947299;28;97017;-80
2023/01/23 04:33:30;;;;;;;10.97;4.10;;;;;;;5.58;68.85;103383.75;4953141;28;96975;-79
2023/01/23 04:35:58;;;;;;;6.30;4.27;;;;;;;5.51;68.94;103361.13;4948443;28;98802;-79
2023/01/23 04:38:24;;;;;;;7.47;3.90;;;;;;;5.52;69.30;103363.47;4963034;28;100469;-79
2023/01/23 04:40:50;;;;;;;7.47;3.97;;;;;;;5.53;69.13;103370.47;4957792;28;96912;-79
2023/01/23 04:43:16;;;;;;;5.87;4.10;;;;;;;5.53;68.95;103388.81;4947516;28;97385;-79
2023/01/23 04:45:42;;;;;;;12.23;4.40;;;;;;;5.52;69.26;103382.59;4929016;28;100075;-79
2023/01/23 04:48:08;;;;;;;6.87;4.47;;;;;;;5.53;69.14;103381.41;4961972;28;98709;-79
2023/01/23 04:50:34;;;;;;;6.50;3.70;;;;;;;5.46;69.26;103378.66;4951005;28;97059;-79
2023/01/23 04:52:59;;;;;;;6.23;3.97;;;;;;;5.44;69.01;103377.53;4949704;28;96878;-79
2023/01/23 04:55:24;;;;;;;7.63;4.03;;;;;;;5.44;69.04;103370.09;4964458;28;99391;-80
2023/01/23 04:57:50;;;;;;;8.70;4.77;;;;;;;5.41;68.99;103417.28;4961549;28;100282;-77
2023/01/23 05:00:16;;;;;;;11.00;4.30;;;;;;;5.40;69.37;103391.16;4938206;28;97088;-79
2023/01/23 05:02:45;;;;;;;8.20;4.20;;;;;;;5.40;69.42;103379.44;4940524;28;98290;-78
2023/01/23 05:05:11;;;;;;;6.37;3.50;;;;;;;5.42;69.45;103386.06;4944051;28;97252;-79
2023/01/23 05:07:36;;;;;;;8.63;3.97;;;;;;;5.46;69.54;103392.31;4940470;28;98348;-78
2023/01/23 05:10:02;;;;;;;6.57;4.07;;;;;;;5.47;69.53;103372.06;4946948;28;97817;-79
2023/01/23 05:12:28;;;;;;;5.33;3.63;;;;;;;5.47;69.29;103380.25;4947670;28;97077;-80
2023/01/23 05:14:53;;;;;;;6.20;4.07;;;;;;;5.49;69.29;103402.47;4943177;28;99369;-78
2023/01/23 05:17:18;;;;;;;7.80;3.87;;;;;;;5.51;69.33;103393.88;4944771;28;97389;-80
2023/01/23 05:19:44;;;;;;;11.33;3.90;;;;;;;5.51;69.33;103396.59;4952304;28;97038;-78
2023/01/23 05:22:09;;;;;;;9.57;4.40;;;;;;;5.46;69.39;103408.69;4941521;28;97272;-80
2023/01/23 05:24:35;;;;;;;6.13;3.50;;;;;;;5.43;69.22;103400.53;4948846;28;97963;-79
2023/01/23 05:27:00;;;;;;;5.03;3.40;;;;;;;5.40;69.44;103406.75;4967154;28;100443;-78
2023/01/23 05:29:25;;;;;;;7.70;4.13;;;;;;;5.39;69.37;103407.94;4938127;28;96917;-79
2023/01/23 05:31:51;;;;;;;13.30;4.10;;;;;;;5.34;69.54;103458.22;4943100;28;97042;-79
2023/01/23 05:34:16;;;;;;;7.50;3.50;;;;;;;5.37;69.64;103404.81;4945937;28;99094;-79
2023/01/23 05:36:41;;;;;;;8.83;4.17;;;;;;;5.45;69.49;103411.81;4941678;28;98807;-79
2023/01/23 05:39:07;;;;;;;7.40;4.00;;;;;;;5.44;69.52;103399.38;4956139;28;97035;-79
2023/01/23 05:41:32;;;;;;;6.07;3.80;;;;;;;5.49;69.33;103413.38;4946930;28;96876;-79
2023/01/23 05:43:58;;;;;;;8.90;4.00;;;;;;;5.49;69.44;103402.47;4949325;28;96740;-80
2023/01/23 05:46:23;;;;;;;6.73;3.90;;;;;;;5.53;69.57;103410.66;4955584;28;97484;-79
2023/01/23 05:48:50;;;;;;;11.90;5.70;;;;;;;5.50;69.37;103422.38;4948134;28;97269;-79
2023/01/23 05:51:15;;;;;;;9.33;5.27;;;;;;;5.50;69.32;103425.88;4935274;28;97097;-79
2023/01/23 05:53:41;;;;;;;12.23;5.40;;;;;;;5.49;69.14;103429.00;4941641;28;100353;-79
2023/01/23 05:56:07;;;;;;;12.67;4.90;;;;;;;5.42;68.98;103440.69;4952567;28;100640;-79
2023/01/23 05:58:32;;;;;;;12.00;4.77;;;;;;;5.39;68.89;103440.69;4944442;28;97005;-80
2023/01/23 06:00:58;;;;;;;13.13;4.70;;;;;;;5.36;69.29;103436.00;4945549;28;97191;-80
2023/01/23 06:03:23;;;;;;;10.73;4.90;;;;;;;5.33;69.44;103430.16;4946440;28;99282;-79
2023/01/23 06:05:49;;;;;;;23.53;4.90;;;;;;;5.34;69.53;103447.31;4942389;28;98435;-81
2023/01/23 06:08:14;;;;;;;8.70;4.40;;;;;;;5.31;69.46;103429.75;4945107;28;96813;-79
2023/01/23 06:10:39;;;;;;;9.90;4.80;;;;;;;5.28;69.52;103429.75;4947878;28;97321;-79
2023/01/23 06:13:05;;;;;;;11.47;4.63;;;;;;;5.32;69.55;103430.53;4943007;28;97822;-80
2023/01/23 06:15:30;;;;;;;9.97;4.37;;;;;;;5.31;69.53;103457.06;4940039;28;97232;-79
2023/01/23 06:17:56;;;;;;;11.00;5.17;;;;;;;5.25;69.59;103466.00;4962305;28;97117;-79
2023/01/23 06:20:21;;;;;;;9.30;4.97;;;;;;;5.22;69.70;103440.25;4946464;28;97694;-79
2023/01/23 06:22:46;;;;;;;13.30;5.00;;;;;;;5.22;69.91;103450.41;4946018;28;98806;-79
2023/01/23 06:25:12;;;;;;;10.90;4.57;;;;;;;5.25;69.99;103450.41;4953132;28;97424;-80
2023/01/23 06:27:37;;;;;;;7.87;4.27;;;;;;;5.28;69.78;103448.88;4952090;28;97094;-79
2023/01/23 06:30:03;;;;;;;16.97;6.03;;;;;;;5.29;69.61;103486.69;4950737;28;97086;-79
2023/01/23 06:32:28;;;;;;;17.37;5.67;;;;;;;5.30;69.83;103460.97;4949928;28;100759;-79
2023/01/23 06:34:54;;;;;;;11.03;5.47;;;;;;;5.31;69.81;103464.44;4945811;28;97005;-80
2023/01/23 06:37:19;;;;;;;12.93;5.70;;;;;;;5.35;69.79;103473.44;4976270;28;97410;-82
2023/01/23 06:39:44;;;;;;;8.07;5.20;;;;;;;5.36;69.72;103494.09;4975430;28;96959;-81
2023/01/23 06:42:10;;;;;;;8.30;4.80;;;;;;;5.35;69.66;103473.44;4951660;28;97198;-79
2023/01/23 06:44:36;;;;;;;17.00;5.40;;;;;;;5.37;69.50;103482.03;4940419;28;97594;-79
2023/01/23 06:47:02;;;;;;;7.87;4.80;;;;;;;5.43;69.83;103488.66;4948059;28;97094;-79
2023/01/23 06:49:27;;;;;;;10.57;5.10;;;;;;;5.44;69.59;103484.00;4945667;28;96780;-79
2023/01/23 06:51:53;;;;;;;19.60;7.07;;;;;;;5.47;69.42;103472.28;4939723;28;97345;-79
2023/01/23 06:54:18;;;;;;;10.10;4.83;;;;;;;5.37;69.64;103464.88;4944383;28;97180;-79
2023/01/23 06:56:44;;;;;;;10.43;4.93;;;;;;;5.46;69.40;103500.78;4946545;28;97050;-79
2023/01/23 06:59:09;;;;;;;9.90;5.27;;;;;;;5.47;69.55;103494.91;4943813;28;97297;-79
2023/01/23 07:01:34;;;;;;;9.13;5.43;;;;;;;5.49;69.41;103497.25;4955283;28;99076;-80
2023/01/23 07:04:00;;;;;;;12.83;4.80;;;;;;;5.52;69.53;103508.19;4951330;28;99608;-80
2023/01/23 07:06:25;;;;;;;10.70;5.27;;;;;;;5.55;69.73;103493.75;4947006;28;97275;-79
2023/01/23 07:08:50;;;;;;;6.63;4.67;;;;;;;5.60;69.25;103498.84;4946479;28;96718;-79
2023/01/23 07:11:16;;;;;;;8.77;4.27;;;;;;;5.59;69.27;103510.16;4947821;28;97083;-80
2023/01/23 07:13:41;;;;;;;19.27;5.83;;;;;;;5.58;69.31;103508.59;4940439;28;96816;-79
2023/01/23 07:16:07;;;;;;;11.87;5.40;;;;;;;5.58;68.88;103506.63;4941507;28;97200;-79
2023/01/23 07:18:32;;;;;;;10.03;5.50;;;;;;;5.58;69.08;103514.03;4950651;28;97269;-79
2023/01/23 07:20:58;;;;;;;8.57;4.17;;;;;;;5.57;69.20;103526.91;4947188;28;100210;-80
2023/01/23 07:23:23;;;;;;;5.67;3.83;;;;;;;5.56;69.47;103519.13;4939805;28;99571;-79
2023/01/23 07:25:48;;;;;;;6.50;3.97;;;;;;;5.60;69.37;103537.06;4952119;28;97141;-80
2023/01/23 07:28:14;;;;;;;15.80;5.77;;;;;;;5.61;69.31;103527.72;4949258;28;96891;-79
2023/01/23 07:30:40;;;;;;;11.60;6.00;;;;;;;5.62;69.23;103523.81;4942901;28;98833;-79
2023/01/23 07:33:05;;;;;;;8.50;4.27;;;;;;;5.62;69.00;103523.81;4951169;28;98843;-79
2023/01/23 07:35:31;;;;;;;9.40;4.53;;;;;;;5.63;69.22;103541.78;4942106;28;97145;-79
2023/01/23 07:37:57;;;;;;;6.20;4.23;;;;;;;5.63;69.38;103551.91;4942425;28;97296;-79
2023/01/23 07:40:23;;;;;;;12.97;4.10;;;;;;;5.64;69.26;103535.13;4948329;28;97920;-79
2023/01/23 07:42:48;;;;;;;7.57;4.30;;;;;;;5.65;69.39;103528.50;4941403;28;97687;-79
2023/01/23 07:45:14;;;;;;;10.07;4.70;;;;;;;5.68;69.17;103552.28;4940513;28;96709;-79
2023/01/23 07:47:39;;;;;;;9.70;5.27;;;;;;;5.66;69.22;103529.25;4944302;28;97140;-79
2023/01/23 07:50:07;;;;;;;22.10;5.30;;;;;;;5.68;69.29;103533.16;4947601;28;100629;-79
2023/01/23 07:52:32;;;;;;;12.70;4.73;;;;;;;5.69;68.91;103536.69;4942157;28;97298;-80
2023/01/23 07:54:58;;;;;;;8.10;4.60;;;;;;;5.63;69.17;103541.78;4945537;28;96992;-79
2023/01/23 07:57:23;;;;;;;8.90;4.80;;;;;;;5.67;69.32;103549.97;4948234;28;97459;-79
2023/01/23 07:59:49;;;;;;;10.17;4.77;;;;;;;5.65;69.23;103525.78;4943349;28;97002;-79
2023/01/23 08:02:14;;;;;;;12.47;5.47;;;;;;;5.63;69.22;103549.97;4949944;28;97393;-79
2023/01/23 08:04:39;;;;;;;11.97;5.00;;;;;;;5.63;69.24;103544.50;4950078;28;97288;-80
2023/01/23 08:07:05;;;;;;;9.50;5.10;;;;;;;5.64;69.42;103532.38;4941937;28;97293;-79
2023/01/23 08:09:30;;;;;;;13.23;5.83;;;;;;;5.67;69.31;103537.09;4951683;28;100567;-79
2023/01/23 08:11:55;;;;;;;11.07;5.97;;;;;;;5.61;69.34;103538.66;4951818;28;99193;-80
2023/01/23 08:14:21;;;;;;;12.20;5.47;;;;;;;5.66;69.38;103530.06;4943321;28;97221;-79
2023/01/23 08:16:50;;;;;;;13.03;5.83;;;;;;;5.70;69.41;103541.75;4948060;28;96726;-79
2023/01/23 08:19:17;;;;;;;13.03;5.10;;;;;;;5.77;69.42;103536.31;4966253;28;99801;-81
2023/01/23 08:21:43;;;;;;;11.07;5.37;;;;;;;5.75;69.25;103527.72;4956474;28;100301;-79
2023/01/23 08:24:10;;;;;;;7.60;4.83;;;;;;;5.77;69.09;103539.03;4953517;28;97064;-78
2023/01/23 08:26:35;;;;;;;10.60;6.10;;;;;;;5.76;69.44;103542.97;4968497;28;96744;-78
2023/01/23 08:29:01;;;;;;;18.60;6.40;;;;;;;5.81;69.54;103545.28;4951880;28;98953;-79
2023/01/23 08:31:26;;;;;;;10.87;6.00;;;;;;;5.78;69.32;103559.75;4962464;28;100716;-79
2023/01/23 08:33:52;;;;;;;11.20;5.63;;;;;;;5.82;69.42;103566.00;4946501;28;97013;-79
2023/01/23 08:36:17;;;;;;;14.83;5.53;;;;;;;5.83;69.44;103580.44;4952813;28;97134;-79
2023/01/23 08:38:42;;;;;;;12.27;5.40;;;;;;;5.86;69.28;103553.13;4949984;28;99062;-78
2023/01/23 08:41:10;;;;;;;12.03;5.97;;;;;;;5.91;69.54;103557.44;4950115;28;97141;-76
2023/01/23 08:43:36;;;;;;;11.10;5.40;;;;;;;5.96;69.53;103555.09;4945778;28;96967;-80
2023/01/23 08:46:01;;;;;;;13.83;6.43;;;;;;;5.98;69.13;103574.63;4945236;28;96693;-79
2023/01/23 08:48:27;;;;;;;10.77;5.67;;;;;;;6.00;69.66;103555.91;4948481;28;97648;-78
2023/01/23 08:50:59;;;;;;;12.07;6.83;;;;;;;6.04;69.50;103561.34;4948341;28;100148;-79
2023/01/23 08:53:24;;;;;;;10.30;6.10;;;;;;;6.05;69.02;103552.75;4966426;28;97684;-80
2023/01/23 08:55:50;;;;;;;13.97;6.40;;;;;;;5.99;69.47;103559.78;4952335;28;97008;-79
2023/01/23 08:58:15;;;;;;;11.87;6.67;;;;;;;6.00;69.38;103572.28;4939378;28;99641;-79
2023/01/23 09:00:41;;;;;;;18.63;6.93;;;;;;;5.98;69.31;103577.34;4943166;28;97730;-79
2023/01/23 09:03:08;;;;;;;15.03;6.93;;;;;;;6.03;69.75;103576.19;4948944;28;96700;-78
2023/01/23 09:05:35;;;;;;;10.50;6.33;;;;;;;6.05;69.54;103579.31;4944548;28;96800;-80
2023/01/23 09:08:00;;;;;;;17.73;6.77;;;;;;;6.10;69.45;103580.88;4950481;28;100716;-79
2023/01/23 09:10:26;;;;;;;14.73;6.43;;;;;;;6.13;69.54;103577.38;4952050;28;100338;-80
2023/01/23 09:12:56;;;;;;;14.43;6.30;;;;;;;6.14;69.38;103587.16;4949577;28;97421;-78
2023/01/23 09:15:21;;;;;;;11.77;6.63;;;;;;;6.11;69.26;103590.66;4937508;28;97124;-79
2023/01/23 09:17:48;;;;;;;13.00;6.13;;;;;;;6.11;69.42;103590.66;4943493;28;97255;-79
2023/01/23 09:20:14;;;;;;;14.17;6.47;;;;;;;6.12;69.42;103589.47;4946898;28;98940;-79
2023/01/23 09:22:39;;;;;;;14.80;6.83;;;;;;;6.13;69.70;103591.81;4944713;28;96960;-80
2023/01/23 09:25:05;;;;;;;12.20;6.90;;;;;;;6.19;69.52;103584.78;4953527;28;97660;-79
2023/01/23 09:27:31;;;;;;;16.93;6.77;;;;;;;6.20;69.50;103607.44;4954849;28;97345;-80
2023/01/23 09:29:56;;;;;;;15.80;7.30;;;;;;;6.18;69.46;103583.22;4950699;28;97079;-78
2023/01/23 09:32:21;;;;;;;16.57;7.27;;;;;;;6.20;69.34;103604.72;4954752;28;96823;-79
2023/01/23 09:34:47;;;;;;;15.13;7.20;;;;;;;6.21;69.45;103598.06;4954248;28;97688;-79
2023/01/23 09:37:14;;;;;;;13.03;7.07;;;;;;;6.20;69.63;103601.97;4938375;28;97596;-79
2023/01/23 09:39:41;;;;;;;14.30;7.53;;;;;;;6.20;69.66;103612.91;4951605;28;98596;-79
2023/01/23 09:42:26;;;;;;;18.30;7.30;;;;;;;6.23;69.63;103598.44;4946002;28;96980;-78
2023/01/23 09:44:59;;;;;;;19.03;8.20;;;;;;;6.22;69.52;103599.63;4940641;28;97419;-78
2023/01/23 09:47:37;;;;;;;17.43;7.67;;;;;;;6.24;69.48;103609.00;4945302;28;98097;-79
2023/01/23 09:50:13;;;;;;;24.00;7.80;;;;;;;6.26;69.59;103622.28;4946002;28;97756;-80
2023/01/23 09:52:48;;;;;;;15.50;7.40;;;;;;;6.25;69.66;103609.78;4952120;28;97523;-78
2023/01/23 09:55:39;;;;;;;14.97;6.93;;;;;;;6.26;69.27;103614.09;4949189;28;97277;-81
2023/01/23 09:58:14;;;;;;;20.33;7.73;;;;;;;6.29;69.65;103610.59;4961396;28;99279;-79
2023/01/23 10:00:39;;;;;;;17.03;6.57;;;;;;;6.29;69.53;103605.88;4944980;28;101505;-79
2023/01/23 10:03:13;;;;;;;15.30;8.07;;;;;;;6.26;69.35;103605.88;4944635;28;96873;-80
2023/01/23 10:05:44;;;;;;;20.00;8.33;;;;;;;6.35;69.35;103611.75;4955582;28;96699;-80
2023/01/23 10:08:27;;;;;;;25.07;8.37;;;;;;;6.31;69.10;103621.91;4941761;28;97227;-79
2023/01/23 10:11:03;;;;;;;25.77;9.07;;;;;;;6.30;69.48;103623.06;4966508;28;101145;-80
2023/01/23 10:13:41;;;;;;;20.60;8.97;;;;;;;6.27;69.34;103618.41;4947401;28;97146;-79
2023/01/23 10:16:26;;;;;;;18.03;8.87;;;;;;;6.27;69.14;103623.88;4954188;28;97306;-81
2023/01/23 10:19:13;;;;;;;22.20;8.87;;;;;;;6.30;69.56;103618.38;4951666;28;99997;-79
2023/01/23 10:22:26;;;;;;;19.80;8.70;;;;;;;6.31;69.08;103619.94;4946024;28;97741;-79
2023/01/23 10:24:56;;;;;;;15.03;8.10;;;;;;;6.29;69.29;103627.75;4940522;28;97511;-79
2023/01/23 10:27:44;;;;;;;20.07;8.03;;;;;;;6.33;69.57;103619.56;4947732;28;96884;-79
2023/01/23 10:30:31;;;;;;;18.70;9.30;;;;;;;6.25;69.08;103615.25;4940404;28;100270;-79
2023/01/23 10:32:58;;;;;;;24.23;7.40;;;;;;;6.23;69.33;103612.13;4943548;28;97145;-78
2023/01/23 10:35:38;;;;;;;22.37;8.90;;;;;;;6.25;69.59;103628.91;4943824;28;96773;-80
2023/01/23 10:38:24;;;;;;;19.50;7.50;;;;;;;6.28;69.62;103620.72;4946642;28;96969;-79
2023/01/23 10:43:34;;;;;;;19.17;9.10;;;;;;;6.32;69.69;103626.19;4936463;28;97400;-79
2023/01/23 10:46:00;;;;;;;18.90;8.30;;;;;;;6.32;69.59;103620.72;4955959;28;96799;-78
2023/01/23 10:48:38;;;;;;;24.47;9.83;;;;;;;6.31;69.34;103638.31;4944723;28;97743;-79
2023/01/23 10:51:03;;;;;;;22.80;9.23;;;;;;;6.30;69.32;103623.84;4947105;28;98713;-79
2023/01/23 10:53:29;;;;;;;25.43;9.17;;;;;;;6.34;69.31;103619.16;4944820;28;97803;-79
2023/01/23 10:55:59;;;;;;;25.87;9.00;;;;;;;6.37;69.33;103634.00;4946399;28;97279;-78
2023/01/23 10:58:39;;;;;;;26.57;9.10;;;;;;;6.40;69.41;103614.09;4940450;28;97211;-79
2023/01/23 11:01:22;;;;;;;22.50;9.83;;;;;;;6.42;69.38;103611.75;4943236;28;97252;-81
2023/01/23 11:03:47;;;;;;;22.13;8.80;;;;;;;6.45;69.39;103624.63;4949785;28;99123;-79
2023/01/23 11:06:17;;;;;;;22.47;8.70;;;;;;;6.47;69.27;103614.88;4950176;28;97454;-79
2023/01/23 11:09:03;;;;;;;22.17;8.80;;;;;;;6.46;69.29;103612.53;4950916;28;97144;-79
2023/01/23 11:11:32;;;;;;;21.10;9.00;;;;;;;6.42;69.30;103609.78;4936521;28;100327;-78
2023/01/23 11:14:15;;;;;;;26.40;9.77;;;;;;;6.46;69.31;103623.47;4937453;28;97515;-79
2023/01/23 11:16:41;;;;;;;23.53;8.90;;;;;;;6.42;69.31;103619.97;4947463;28;97022;-79
2023/01/23 11:19:06;;;;;;;17.53;8.03;;;;;;;6.41;69.00;103613.69;4950077;28;97755;-79
2023/01/23 11:21:34;;;;;;;22.37;9.60;;;;;;;6.36;69.59;103638.69;4942425;28;98938;-80
2023/01/23 11:24:21;;;;;;;25.93;9.73;;;;;;;6.35;69.16;103612.53;4941908;28;100387;-80
2023/01/23 11:26:46;;;;;;;22.83;9.03;;;;;;;6.33;69.26;103619.56;4952883;28;97246;-80
2023/01/23 11:29:24;;;;;;;23.10;9.03;;;;;;;6.37;69.49;103620.34;4949090;28;96967;-79
2023/01/23 11:31:56;;;;;;;21.40;9.07;;;;;;;6.37;69.31;103629.34;4946598;28;100914;-79
2023/01/23 11:34:28;;;;;;;20.40;8.70;;;;;;;6.43;69.34;103624.25;4945784;28;97314;-79
2023/01/23 11:37:03;;;;;;;21.80;8.40;;;;;;;6.46;69.35;103618.00;4940128;28;97376;-79
2023/01/23 11:39:46;;;;;;;22.07;9.03;;;;;;;6.49;69.16;103617.19;4944766;28;97155;-79
2023/01/23 11:42:13;;;;;;;21.23;8.40;;;;;;;6.45;69.13;103630.09;4948688;28;97847;-79